createdAt,value
2023-04-21T00:02:45.157Z,0.63
2023-04-21T00:05:34.352Z,0.85
2023-04-21T00:08:23.473Z,0.70
2023-04-21T00:11:12.446Z,0.82
2023-04-21T00:14:01.174Z,0.80
2023-04-21T00:16:52.699Z,0.82
2023-04-21T00:19:41.350Z,0.60
2023-04-21T00:22:30.626Z,0.60
2023-04-21T00:25:19.616Z,0.60
2023-04-21T00:28:08.547Z,0.68
2023-04-21T00:30:57.203Z,0.65
2023-04-21T00:33:47.265Z,0.60
2023-04-21T00:36:35.952Z,0.70
2023-04-21T00:39:24.508Z,0.40
2023-04-21T00:42:13.082Z,0.80
2023-04-21T00:45:01.719Z,0.60
2023-04-21T00:47:50.285Z,0.60
2023-04-21T00:50:41.170Z,0.77
2023-04-21T00:53:33.501Z,0.60
2023-04-21T00:56:23.309Z,0.55
2023-04-21T00:59:11.988Z,0.50
2023-04-21T01:02:00.741Z,0.45
2023-04-21T01:04:49.780Z,0.50
2023-04-21T01:07:39.970Z,0.30
2023-04-21T01:10:28.571Z,0.90
2023-04-21T01:13:17.120Z,0.55
2023-04-21T01:16:06.341Z,0.50
2023-04-21T01:18:55.090Z,0.47
2023-04-21T01:21:45.134Z,0.52
2023-04-21T01:24:40.766Z,0.63
2023-04-21T01:27:29.327Z,0.50
2023-04-21T01:30:17.985Z,0.40
2023-04-21T01:33:06.690Z,0.60
2023-04-21T01:35:55.564Z,0.30
2023-04-21T01:38:45.589Z,0.50
2023-04-21T01:41:34.255Z,0.30
2023-04-21T01:44:22.989Z,0.80
2023-04-21T01:47:12.423Z,0.25
2023-04-21T01:50:01.029Z,0.35
2023-04-21T01:52:49.737Z,0.45
2023-04-21T01:55:39.958Z,0.47
2023-04-21T01:58:28.529Z,0.57
2023-04-21T02:01:17.232Z,0.50
2023-04-21T02:04:06.533Z,0.40
2023-04-21T02:06:58.255Z,0.30
2023-04-21T02:09:47.112Z,0.65
2023-04-21T02:12:37.072Z,0.35
2023-04-21T02:15:25.908Z,0.50
2023-04-21T02:18:14.966Z,0.40
2023-04-21T02:21:03.694Z,0.28
2023-04-21T02:23:53.087Z,0.35
2023-04-21T02:26:41.679Z,0.22
2023-04-21T02:29:32.017Z,0.45
2023-04-21T02:32:25.945Z,0.20
2023-04-21T02:35:15.739Z,0.60
2023-04-21T02:38:08.889Z,0.30
2023-04-21T02:40:57.981Z,0.50
2023-04-21T02:43:46.654Z,0.52
2023-04-21T02:46:37.776Z,0.50
2023-04-21T02:49:26.551Z,0.30
2023-04-21T02:52:15.934Z,0.40
2023-04-21T02:55:04.573Z,0.40
2023-04-21T02:57:53.262Z,0.30
2023-04-21T03:00:41.911Z,0.50
2023-04-21T03:03:33.140Z,0.28
2023-04-21T03:06:22.017Z,0.47
2023-04-21T03:09:10.680Z,0.43
2023-04-21T03:11:59.282Z,0.30
2023-04-21T03:14:48.124Z,0.50
2023-04-21T03:17:36.774Z,0.40
2023-04-21T03:20:26.757Z,0.30
2023-04-21T03:23:15.889Z,0.45
2023-04-21T03:26:08.422Z,0.30
2023-04-21T03:28:57.005Z,0.30
2023-04-21T03:31:45.976Z,0.45
2023-04-21T03:34:34.645Z,0.40
2023-04-21T03:37:24.677Z,0.30
2023-04-21T03:40:13.315Z,0.22
2023-04-21T03:43:02.018Z,0.30
2023-04-21T03:45:50.692Z,0.15
2023-04-21T03:48:39.309Z,0.60
2023-04-21T03:51:32.385Z,0.28
2023-04-21T03:54:22.454Z,0.32
2023-04-21T03:57:11.091Z,0.55
2023-04-21T03:59:59.762Z,0.82
2023-04-21T04:02:48.616Z,0.35
2023-04-21T04:05:37.842Z,0.43
2023-04-21T04:08:26.514Z,0.35
2023-04-21T04:11:16.541Z,0.20
2023-04-21T04:14:05.214Z,1.17
2023-04-21T04:16:53.811Z,1.85
2023-04-21T04:19:42.411Z,1.25
2023-04-21T04:22:31.007Z,1.00
2023-04-21T04:25:19.684Z,1.08
2023-04-21T04:28:09.672Z,0.65
2023-04-21T04:30:58.343Z,0.73
2023-04-21T04:33:46.948Z,0.90
2023-04-21T04:36:35.746Z,2.30
2023-04-21T04:39:24.713Z,1.58
2023-04-21T04:42:14.455Z,13.15
2023-04-21T04:45:04.643Z,9.35
2023-04-21T04:47:53.384Z,5.13
2023-04-21T04:50:41.978Z,11.55
2023-04-21T04:53:30.931Z,12.00
2023-04-21T04:56:19.521Z,9.68
2023-04-21T04:59:08.401Z,9.30
2023-04-21T05:01:58.780Z,8.95
2023-04-21T05:04:47.495Z,8.18
2023-04-21T05:07:36.506Z,7.18
2023-04-21T05:10:25.500Z,6.13
2023-04-21T05:13:14.128Z,9.23
2023-04-21T05:16:03.064Z,10.00
2023-04-21T05:18:54.017Z,8.75
2023-04-21T05:21:42.749Z,8.82
2023-04-21T05:24:31.398Z,7.30
2023-04-21T05:27:20.039Z,7.85
2023-04-21T05:30:09.803Z,7.78
2023-04-21T05:32:58.489Z,8.27
2023-04-21T05:35:48.667Z,7.55
2023-04-21T05:38:37.393Z,7.55
2023-04-21T05:41:26.020Z,7.68
2023-04-21T05:44:14.775Z,7.22
2023-04-21T05:47:03.396Z,6.07
2023-04-21T05:49:53.955Z,7.07
2023-04-21T05:52:44.206Z,6.68
2023-04-21T05:55:32.785Z,6.55
2023-04-21T05:58:21.397Z,6.70
2023-04-21T06:01:10.237Z,5.57
2023-04-21T06:03:58.913Z,6.25
2023-04-21T06:06:47.820Z,6.40
2023-04-21T06:09:38.320Z,5.72
2023-04-21T06:12:26.930Z,6.05
2023-04-21T06:15:15.738Z,6.45
2023-04-21T06:18:04.394Z,6.32
2023-04-21T06:20:53.933Z,6.72
2023-04-21T06:23:42.550Z,6.38
2023-04-21T06:26:33.156Z,5.55
2023-04-21T06:29:21.887Z,5.97
2023-04-21T06:32:11.181Z,6.60
2023-04-21T06:35:00.054Z,5.38
2023-04-21T06:37:48.812Z,6.13
2023-04-21T06:40:37.481Z,5.68
2023-04-21T06:43:27.489Z,6.07
2023-04-21T06:46:16.028Z,5.43
2023-04-21T06:49:04.895Z,5.90
2023-04-21T06:51:53.759Z,5.90
2023-04-21T06:54:42.444Z,5.53
2023-04-21T06:57:31.254Z,5.80
2023-04-21T07:00:22.455Z,4.88
2023-04-21T07:03:11.330Z,5.30
2023-04-21T07:06:00.025Z,5.40
2023-04-21T07:09:01.857Z,4.82
2023-04-21T07:11:50.572Z,5.43
2023-04-21T07:14:39.180Z,4.75
2023-04-21T07:17:29.326Z,5.55
2023-04-21T07:20:18.919Z,4.38
2023-04-21T07:23:08.014Z,5.13
2023-04-21T07:25:56.732Z,5.13
2023-04-21T07:28:45.700Z,4.70
2023-04-21T07:31:34.432Z,4.97
2023-04-21T07:34:24.641Z,5.03
2023-04-21T07:37:13.288Z,4.72
2023-04-21T07:40:01.988Z,4.53
2023-04-21T07:42:50.931Z,4.50
2023-04-21T07:45:39.819Z,4.15
2023-04-21T07:48:28.723Z,3.45
2023-04-21T07:51:18.816Z,4.53
2023-04-21T07:54:07.479Z,3.83
2023-04-21T07:56:56.127Z,3.85
2023-04-21T07:59:45.053Z,3.92
2023-04-21T08:02:33.781Z,4.43
2023-04-21T08:05:22.627Z,4.40
2023-04-21T08:08:12.800Z,3.60
2023-04-21T08:11:01.509Z,3.58
2023-04-21T08:13:51.790Z,4.40
2023-04-21T08:16:42.288Z,4.03
2023-04-21T08:19:31.229Z,3.72
2023-04-21T08:22:20.084Z,2.92
2023-04-21T08:25:10.707Z,3.42
2023-04-21T08:27:59.424Z,2.92
2023-04-21T08:30:48.021Z,2.95
2023-04-21T08:33:41.375Z,2.75
2023-04-21T08:36:36.064Z,3.13
2023-04-21T08:39:25.109Z,2.90
2023-04-21T08:42:16.030Z,2.72
2023-04-21T08:45:04.888Z,2.58
2023-04-21T08:47:53.940Z,2.95
2023-04-21T08:50:46.340Z,2.40
2023-04-21T08:53:35.024Z,2.70
2023-04-21T08:56:26.229Z,2.40
2023-04-21T08:59:16.491Z,2.58
2023-04-21T09:02:11.151Z,2.10
2023-04-21T09:05:00.207Z,2.53
2023-04-21T09:07:49.278Z,2.55
2023-04-21T09:10:45.069Z,2.22
2023-04-21T09:13:36.563Z,2.17
2023-04-21T09:16:26.674Z,2.80
2023-04-21T09:19:16.750Z,2.40
2023-04-21T09:22:05.692Z,2.10
2023-04-21T09:25:00.062Z,2.08
2023-04-21T09:27:49.123Z,2.05
2023-04-21T09:30:38.449Z,1.80
2023-04-21T09:33:32.558Z,1.75
2023-04-21T09:36:28.107Z,2.10
2023-04-21T09:42:12.017Z,2.08
2023-04-21T09:47:57.971Z,2.10
2023-04-21T09:53:42.303Z,2.20
2023-04-21T09:56:39.113Z,2.00
2023-04-21T09:59:32.291Z,2.40
2023-04-21T10:02:22.063Z,1.67
2023-04-21T10:05:12.026Z,1.52
2023-04-21T10:08:02.551Z,1.58
2023-04-21T10:10:52.966Z,1.88
2023-04-21T10:13:43.333Z,1.80
2023-04-21T10:16:32.128Z,1.70
2023-04-21T10:19:28.176Z,1.70
2023-04-21T10:22:28.471Z,1.73
2023-04-21T10:25:18.812Z,1.55
2023-04-21T10:28:08.158Z,1.50
2023-04-21T10:31:27.097Z,1.88
2023-04-21T10:34:17.264Z,1.48
2023-04-21T10:37:16.251Z,1.65
2023-04-21T10:40:09.360Z,1.27
2023-04-21T10:42:59.404Z,1.38
2023-04-21T10:45:48.073Z,1.67
2023-04-21T10:48:39.011Z,1.10
2023-04-21T10:51:32.824Z,1.40
2023-04-21T10:54:23.525Z,1.70
2023-04-21T10:57:14.344Z,1.42
2023-04-21T11:00:07.093Z,1.17
2023-04-21T11:02:57.998Z,1.27
2023-04-21T11:05:46.710Z,1.20
2023-04-21T11:08:38.255Z,1.40
2023-04-21T11:11:27.013Z,1.63
2023-04-21T11:14:19.308Z,1.58
2023-04-21T11:17:16.262Z,1.25
2023-04-21T11:20:06.627Z,1.02
2023-04-21T11:22:58.411Z,0.98
2023-04-21T11:25:49.499Z,1.08
2023-04-21T11:28:41.985Z,1.10
2023-04-21T11:31:31.384Z,1.40
2023-04-21T11:34:25.132Z,1.20
2023-04-21T11:37:17.771Z,1.15
2023-04-21T11:40:08.439Z,1.30
2023-04-21T11:42:57.195Z,1.15
2023-04-21T11:45:50.710Z,0.90
2023-04-21T11:48:39.651Z,1.20
2023-04-21T11:51:34.893Z,1.10
2023-04-21T11:54:24.500Z,0.90
2023-04-21T11:57:13.223Z,0.95
2023-04-21T12:00:02.682Z,0.70
2023-04-21T12:02:57.258Z,0.93
2023-04-21T12:05:46.070Z,0.77
2023-04-21T12:08:36.151Z,0.60
2023-04-21T12:11:25.233Z,0.88
2023-04-21T12:14:13.916Z,1.05
2023-04-21T12:17:02.487Z,1.30
2023-04-21T12:19:51.206Z,1.05
2023-04-21T12:22:40.068Z,1.10
2023-04-21T12:25:30.131Z,1.25
2023-04-21T12:28:19.095Z,0.90
2023-04-21T12:31:08.071Z,1.13
2023-04-21T12:33:57.554Z,1.10
2023-04-21T12:36:46.219Z,0.90
2023-04-21T12:39:35.568Z,0.88
2023-04-21T12:42:25.664Z,0.82
2023-04-21T12:45:14.569Z,0.98
2023-04-21T12:48:04.534Z,1.20
2023-04-21T12:50:53.287Z,0.70
2023-04-21T12:53:42.005Z,0.90
2023-04-21T12:56:31.431Z,0.70
2023-04-21T12:59:21.381Z,0.90
2023-04-21T13:02:10.263Z,1.25
2023-04-21T13:04:58.904Z,0.88
2023-04-21T13:07:47.566Z,0.73
2023-04-21T13:10:36.592Z,1.13
2023-04-21T13:13:25.232Z,1.20
2023-04-21T13:16:15.441Z,1.83
2023-04-21T13:19:04.166Z,1.20
2023-04-21T13:21:54.354Z,1.70
2023-04-21T13:24:43.114Z,1.35
2023-04-21T13:27:33.312Z,1.40
2023-04-21T13:30:22.001Z,1.85
2023-04-21T13:33:12.586Z,1.60
2023-04-21T13:36:01.635Z,1.55
2023-04-21T13:38:50.929Z,1.52
2023-04-21T13:41:39.522Z,1.38
2023-04-21T13:44:28.243Z,2.20
2023-04-21T13:47:16.906Z,1.58
2023-04-21T13:50:09.035Z,1.45
2023-04-21T13:52:57.770Z,2.22
2023-04-21T13:55:46.738Z,2.03
2023-04-21T13:58:35.906Z,1.80
2023-04-21T14:01:24.544Z,1.95
2023-04-21T14:04:13.514Z,1.50
2023-04-21T14:07:03.916Z,1.88
2023-04-21T14:09:52.768Z,1.70
2023-04-21T14:12:41.419Z,1.65
2023-04-21T14:15:30.170Z,1.75
2023-04-21T14:18:18.915Z,1.45
2023-04-21T14:21:07.819Z,1.67
2023-04-21T14:23:57.858Z,1.88
2023-04-21T14:26:46.591Z,1.67
2023-04-21T14:29:35.435Z,1.73
2023-04-21T14:32:24.379Z,2.15
2023-04-21T14:35:13.293Z,1.88
2023-04-21T14:38:02.014Z,2.30
2023-04-21T14:40:54.446Z,1.80
2023-04-21T14:43:43.247Z,1.40
2023-04-21T14:46:32.073Z,2.05
2023-04-21T14:49:20.794Z,1.48
2023-04-21T14:52:09.668Z,2.38
2023-04-21T14:54:58.359Z,2.13
2023-04-21T14:57:48.396Z,1.83
2023-04-21T15:00:37.146Z,1.45
2023-04-21T15:03:26.400Z,2.25
2023-04-21T15:06:16.152Z,1.83
2023-04-21T15:09:05.230Z,1.90
2023-04-21T15:11:54.736Z,1.63
2023-04-21T15:14:44.751Z,1.92
2023-04-21T15:17:33.515Z,1.58
2023-04-21T15:20:32.516Z,1.42
2023-04-21T15:23:29.570Z,1.60
2023-04-21T15:26:18.451Z,1.83
2023-04-21T15:29:07.156Z,1.40
2023-04-21T15:31:57.170Z,2.13
2023-04-21T15:34:45.834Z,2.28
2023-04-21T15:37:34.521Z,1.83
2023-04-21T15:40:23.258Z,2.30
2023-04-21T15:43:11.912Z,2.45
2023-04-21T15:46:00.605Z,3.45
2023-04-21T15:48:50.583Z,2.50
2023-04-21T15:51:39.428Z,2.88
2023-04-21T15:54:28.247Z,2.92
2023-04-21T15:57:16.919Z,2.75
2023-04-21T16:00:10.060Z,2.80
2023-04-21T16:02:59.738Z,3.15
2023-04-21T16:05:50.023Z,3.30
2023-04-21T16:08:38.893Z,4.07
2023-04-21T16:11:29.245Z,4.30
2023-04-21T16:14:17.986Z,4.30
2023-04-21T16:17:06.686Z,3.42
2023-04-21T16:19:55.441Z,3.38
2023-04-21T16:22:45.477Z,3.40
2023-04-21T16:25:35.462Z,2.78
2023-04-21T16:28:24.492Z,3.72
2023-04-21T16:31:13.098Z,3.20
2023-04-21T16:34:01.895Z,2.95
2023-04-21T16:36:50.712Z,3.03
2023-04-21T16:39:40.761Z,2.97
2023-04-21T16:42:29.418Z,3.40
2023-04-21T16:45:18.438Z,3.70
2023-04-21T16:48:07.276Z,3.10
2023-04-21T16:50:56.141Z,3.60
2023-04-21T16:53:44.806Z,3.20
2023-04-21T16:56:35.374Z,3.45
2023-04-21T16:59:24.520Z,2.70
2023-04-21T17:02:13.386Z,3.47
2023-04-21T17:05:02.032Z,3.28
2023-04-21T17:07:51.632Z,3.92
2023-04-21T17:10:40.325Z,3.45
2023-04-21T17:13:30.331Z,3.42
2023-04-21T17:16:18.964Z,3.22
2023-04-21T17:19:07.827Z,3.28
2023-04-21T17:21:56.450Z,3.83
2023-04-21T17:24:53.215Z,2.95
2023-04-21T17:27:42.742Z,3.33
2023-04-21T17:30:35.739Z,3.53
2023-04-21T17:33:24.845Z,3.10
2023-04-21T17:36:14.167Z,3.22
2023-04-21T17:39:02.907Z,3.33
2023-04-21T17:41:51.499Z,3.50
2023-04-21T17:44:41.244Z,3.20
2023-04-21T17:47:31.403Z,3.10
2023-04-21T17:50:20.819Z,3.58
2023-04-21T17:53:09.516Z,3.42
2023-04-21T17:55:58.291Z,3.40
2023-04-21T17:58:47.003Z,3.53
2023-04-21T18:01:35.725Z,3.53
2023-04-21T18:04:27.303Z,3.72
2023-04-21T18:07:16.159Z,2.88
2023-04-21T18:10:05.401Z,4.10
2023-04-21T18:12:54.069Z,3.28
2023-04-21T18:15:42.703Z,3.20
2023-04-21T18:18:31.943Z,3.33
2023-04-21T18:21:22.664Z,3.55
2023-04-21T18:24:11.260Z,3.42
2023-04-21T18:26:59.854Z,3.60
2023-04-21T18:29:48.579Z,2.78
2023-04-21T18:32:37.503Z,3.85
2023-04-21T18:35:26.143Z,3.10
2023-04-21T18:38:16.145Z,3.10
2023-04-21T18:41:04.722Z,3.20
2023-04-21T18:43:53.335Z,3.08
2023-04-21T18:46:42.661Z,3.50
2023-04-21T18:49:31.261Z,3.13
2023-04-21T18:52:19.961Z,3.28
2023-04-21T18:55:11.132Z,3.33
2023-04-21T18:57:59.720Z,2.67
2023-04-21T19:00:48.421Z,2.75
2023-04-21T19:03:42.931Z,2.92
2023-04-21T19:06:32.556Z,3.33
2023-04-21T19:09:21.157Z,3.10
2023-04-21T19:12:13.272Z,3.15
2023-04-21T19:15:01.997Z,3.15
2023-04-21T19:17:50.656Z,3.38
2023-04-21T19:20:39.323Z,3.30
2023-04-21T19:23:27.963Z,3.00
2023-04-21T19:26:16.696Z,3.35
2023-04-21T19:29:08.641Z,3.30
2023-04-21T19:31:57.315Z,3.50
2023-04-21T19:34:46.151Z,3.38
2023-04-21T19:37:35.813Z,3.80
2023-04-21T19:40:24.398Z,4.22
2023-04-21T19:43:17.498Z,3.22
2023-04-21T19:46:07.934Z,4.25
2023-04-21T19:48:56.839Z,3.50
2023-04-21T19:51:45.380Z,2.75
2023-04-21T19:54:33.996Z,3.40
2023-04-21T19:57:22.611Z,2.80
2023-04-21T20:00:12.511Z,3.42
2023-04-21T20:03:02.637Z,2.75
2023-04-21T20:05:51.325Z,2.55
2023-04-21T20:08:39.919Z,2.78
2023-04-21T20:11:29.329Z,2.83
2023-04-21T20:14:19.230Z,3.05
2023-04-21T20:17:07.981Z,3.15
2023-04-21T20:19:58.846Z,3.20
2023-04-21T20:22:48.332Z,2.92
2023-04-21T20:25:37.644Z,3.58
2023-04-21T20:28:27.540Z,2.42
2023-04-21T20:31:16.595Z,2.85
2023-04-21T20:34:05.570Z,2.47
2023-04-21T20:36:55.641Z,2.35
2023-04-21T20:39:46.796Z,2.47
2023-04-21T20:42:36.335Z,2.40
2023-04-21T20:45:26.145Z,2.72
2023-04-21T20:48:14.967Z,2.72
2023-04-21T20:51:03.613Z,2.60
2023-04-21T20:53:53.723Z,2.38
2023-04-21T20:56:42.353Z,2.20
2023-04-21T20:59:31.047Z,2.90
2023-04-21T21:02:19.783Z,2.90
2023-04-21T21:05:09.018Z,2.35
2023-04-21T21:07:57.918Z,2.60
2023-04-21T21:10:47.988Z,2.13
2023-04-21T21:13:36.633Z,2.72
2023-04-21T21:16:25.813Z,2.15
2023-04-21T21:19:14.653Z,2.50
2023-04-21T21:22:03.304Z,2.15
2023-04-21T21:24:52.073Z,2.42
2023-04-21T21:27:42.117Z,2.70
2023-04-21T21:30:30.714Z,2.53
2023-04-21T21:33:19.556Z,2.17
2023-04-21T21:36:08.531Z,2.17
2023-04-21T21:38:57.213Z,2.78
2023-04-21T21:41:45.829Z,2.15
2023-04-21T21:44:36.370Z,2.13
2023-04-21T21:47:25.130Z,2.40
2023-04-21T21:50:14.060Z,2.35
2023-04-21T21:53:02.660Z,2.90
2023-04-21T21:55:51.233Z,2.20
2023-04-21T21:58:39.927Z,2.05
2023-04-21T22:01:29.952Z,3.13
2023-04-21T22:04:18.701Z,2.88
2023-04-21T22:07:07.969Z,2.78
2023-04-21T22:09:59.658Z,2.78
2023-04-21T22:12:48.234Z,2.72
2023-04-21T22:15:37.285Z,3.00
2023-04-21T22:18:28.061Z,2.88
2023-04-21T22:21:16.928Z,3.40
2023-04-21T22:24:06.370Z,3.88
2023-04-21T22:26:55.023Z,2.95
2023-04-21T22:29:44.073Z,2.83
2023-04-21T22:32:32.977Z,3.58
2023-04-21T22:35:23.017Z,4.60
2023-04-21T22:38:11.684Z,3.58
2023-04-21T22:41:00.386Z,3.65
2023-04-21T22:43:49.524Z,3.58
2023-04-21T22:46:38.392Z,3.20
2023-04-21T22:49:27.227Z,3.72
2023-04-21T22:52:17.150Z,3.72
2023-04-21T22:55:06.289Z,3.45
2023-04-21T22:57:54.929Z,2.95
2023-04-21T23:00:45.113Z,3.30
2023-04-21T23:03:33.959Z,3.63
2023-04-21T23:06:22.639Z,3.38
2023-04-21T23:09:12.778Z,3.38
2023-04-21T23:12:01.659Z,3.25
2023-04-21T23:14:50.275Z,3.35
2023-04-21T23:17:38.991Z,3.25
2023-04-21T23:20:27.677Z,3.33
2023-04-21T23:23:16.413Z,3.42
2023-04-21T23:26:06.684Z,3.80
2023-04-21T23:28:55.306Z,3.53
2023-04-21T23:31:44.115Z,3.00
2023-04-21T23:34:32.986Z,3.20
2023-04-21T23:37:21.664Z,3.38
2023-04-21T23:40:12.559Z,3.15
2023-04-21T23:43:02.782Z,3.25
2023-04-21T23:45:51.960Z,2.80
2023-04-21T23:48:40.723Z,3.00
2023-04-21T23:51:29.523Z,3.35
2023-04-21T23:54:18.170Z,3.35
2023-04-21T23:57:06.868Z,3.10
2023-04-21T23:59:56.904Z,3.58
